sensor_id;sensor_type;location;lat;lon;timestamp;temperature;humidity
22544;DHT22;11438;52.044;8.716;2023-03-26T00:00:36;11.90;99.00
22544;DHT22;11438;52.044;8.716;2023-03-26T00:03:03;11.90;99.00
22544;DHT22;11438;52.044;8.716;2023-03-26T00:05:29;11.90;99.00
22544;DHT22;11438;52.044;8.716;2023-03-26T00:07:56;11.90;99.00
22544;DHT22;11438;52.044;8.716;2023-03-26T00:10:22;11.90;99.00
22544;DHT22;11438;52.044;8.716;2023-03-26T00:12:47;11.90;99.00
22544;DHT22;11438;52.044;8.716;2023-03-26T00:15:13;11.90;99.00
22544;DHT22;11438;52.044;8.716;2023-03-26T00:17:38;11.80;98.90
22544;DHT22;11438;52.044;8.716;2023-03-26T00:20:04;11.80;99.00
22544;DHT22;11438;52.044;8.716;2023-03-26T00:22:30;11.80;99.00
22544;DHT22;11438;52.044;8.716;2023-03-26T00:24:55;11.80;98.90
22544;DHT22;11438;52.044;8.716;2023-03-26T00:27:21;11.80;99.00
22544;DHT22;11438;52.044;8.716;2023-03-26T00:29:47;11.70;99.00
22544;DHT22;11438;52.044;8.716;2023-03-26T00:32:13;11.70;99.00
22544;DHT22;11438;52.044;8.716;2023-03-26T00:34:38;11.70;99.10
22544;DHT22;11438;52.044;8.716;2023-03-26T00:37:05;11.60;99.10
22544;DHT22;11438;52.044;8.716;2023-03-26T00:39:31;11.60;99.10
22544;DHT22;11438;52.044;8.716;2023-03-26T00:41:58;11.60;99.30
22544;DHT22;11438;52.044;8.716;2023-03-26T00:44:23;11.60;99.30
22544;DHT22;11438;52.044;8.716;2023-03-26T00:46:48;11.60;99.30
22544;DHT22;11438;52.044;8.716;2023-03-26T00:49:14;11.60;99.30
22544;DHT22;11438;52.044;8.716;2023-03-26T00:51:40;11.60;99.30
22544;DHT22;11438;52.044;8.716;2023-03-26T00:54:06;11.60;99.40
22544;DHT22;11438;52.044;8.716;2023-03-26T00:56:33;11.60;99.40
22544;DHT22;11438;52.044;8.716;2023-03-26T00:58:58;11.60;99.40
22544;DHT22;11438;52.044;8.716;2023-03-26T01:01:26;11.60;99.50
22544;DHT22;11438;52.044;8.716;2023-03-26T01:03:52;11.60;99.50
22544;DHT22;11438;52.044;8.716;2023-03-26T01:06:33;11.60;99.60
22544;DHT22;11438;52.044;8.716;2023-03-26T01:09:16;11.60;99.60
22544;DHT22;11438;52.044;8.716;2023-03-26T01:11:43;11.60;99.60
22544;DHT22;11438;52.044;8.716;2023-03-26T01:14:12;11.60;99.60
22544;DHT22;11438;52.044;8.716;2023-03-26T01:16:46;11.60;99.70
22544;DHT22;11438;52.044;8.716;2023-03-26T01:22:04;11.60;99.70
22544;DHT22;11438;52.044;8.716;2023-03-26T01:24:30;11.60;99.90
22544;DHT22;11438;52.044;8.716;2023-03-26T01:26:59;11.50;99.80
22544;DHT22;11438;52.044;8.716;2023-03-26T01:32:15;11.50;99.90
22544;DHT22;11438;52.044;8.716;2023-03-26T01:40:23;11.60;99.90
22544;DHT22;11438;52.044;8.716;2023-03-26T01:43:08;11.60;99.90
22544;DHT22;11438;52.044;8.716;2023-03-26T01:45:37;11.60;99.90
22544;DHT22;11438;52.044;8.716;2023-03-26T01:48:05;11.60;99.70
22544;DHT22;11438;52.044;8.716;2023-03-26T01:50:31;11.70;99.70
22544;DHT22;11438;52.044;8.716;2023-03-26T01:52:56;11.60;99.60
22544;DHT22;11438;52.044;8.716;2023-03-26T02:01:11;11.70;99.60
22544;DHT22;11438;52.044;8.716;2023-03-26T02:03:47;11.60;99.60
22544;DHT22;11438;52.044;8.716;2023-03-26T02:06:37;11.70;99.50
22544;DHT22;11438;52.044;8.716;2023-03-26T02:09:07;11.70;99.60
22544;DHT22;11438;52.044;8.716;2023-03-26T02:11:36;11.70;99.70
22544;DHT22;11438;52.044;8.716;2023-03-26T02:14:03;11.70;99.70
22544;DHT22;11438;52.044;8.716;2023-03-26T02:16:30;11.70;99.70
22544;DHT22;11438;52.044;8.716;2023-03-26T02:18:55;11.70;99.70
22544;DHT22;11438;52.044;8.716;2023-03-26T02:21:23;11.70;99.70
22544;DHT22;11438;52.044;8.716;2023-03-26T02:23:52;11.70;99.80
22544;DHT22;11438;52.044;8.716;2023-03-26T02:26:27;11.70;99.80
22544;DHT22;11438;52.044;8.716;2023-03-26T02:28:54;11.70;99.70
22544;DHT22;11438;52.044;8.716;2023-03-26T02:31:19;11.70;99.70
22544;DHT22;11438;52.044;8.716;2023-03-26T02:33:46;11.70;99.70
22544;DHT22;11438;52.044;8.716;2023-03-26T02:36:12;11.80;99.60
22544;DHT22;11438;52.044;8.716;2023-03-26T02:38:38;11.70;99.60
22544;DHT22;11438;52.044;8.716;2023-03-26T02:41:04;11.80;99.60
22544;DHT22;11438;52.044;8.716;2023-03-26T02:43:30;11.80;99.60
22544;DHT22;11438;52.044;8.716;2023-03-26T02:45:56;11.80;99.60
22544;DHT22;11438;52.044;8.716;2023-03-26T02:48:21;11.80;99.70
22544;DHT22;11438;52.044;8.716;2023-03-26T02:50:47;11.80;99.60
22544;DHT22;11438;52.044;8.716;2023-03-26T02:53:19;11.80;99.60
22544;DHT22;11438;52.044;8.716;2023-03-26T02:55:46;11.80;99.70
22544;DHT22;11438;52.044;8.716;2023-03-26T02:58:11;11.80;99.80
22544;DHT22;11438;52.044;8.716;2023-03-26T03:00:42;11.80;99.80
22544;DHT22;11438;52.044;8.716;2023-03-26T03:03:07;11.80;99.80
22544;DHT22;11438;52.044;8.716;2023-03-26T03:05:34;11.80;99.80
22544;DHT22;11438;52.044;8.716;2023-03-26T03:08:02;11.80;99.90
22544;DHT22;11438;52.044;8.716;2023-03-26T03:10:28;11.80;99.90
22544;DHT22;11438;52.044;8.716;2023-03-26T03:12:57;11.80;99.90
22544;DHT22;11438;52.044;8.716;2023-03-26T03:15:23;11.80;99.90
22544;DHT22;11438;52.044;8.716;2023-03-26T03:17:49;11.80;99.90
22544;DHT22;11438;52.044;8.716;2023-03-26T03:20:15;11.80;99.90
22544;DHT22;11438;52.044;8.716;2023-03-26T03:22:41;11.80;99.90
22544;DHT22;11438;52.044;8.716;2023-03-26T03:25:07;11.80;99.90
22544;DHT22;11438;52.044;8.716;2023-03-26T03:27:34;11.80;99.90
22544;DHT22;11438;52.044;8.716;2023-03-26T03:29:59;11.80;99.90
22544;DHT22;11438;52.044;8.716;2023-03-26T03:32:25;11.80;99.90
22544;DHT22;11438;52.044;8.716;2023-03-26T03:34:51;11.80;99.90
22544;DHT22;11438;52.044;8.716;2023-03-26T03:37:17;11.80;99.90
22544;DHT22;11438;52.044;8.716;2023-03-26T03:39:43;11.80;99.90
22544;DHT22;11438;52.044;8.716;2023-03-26T03:42:10;11.80;99.90
22544;DHT22;11438;52.044;8.716;2023-03-26T03:44:35;11.80;99.90
22544;DHT22;11438;52.044;8.716;2023-03-26T03:47:01;11.80;99.90
22544;DHT22;11438;52.044;8.716;2023-03-26T03:49:26;11.80;99.90
22544;DHT22;11438;52.044;8.716;2023-03-26T03:51:51;11.80;99.90
22544;DHT22;11438;52.044;8.716;2023-03-26T03:54:17;11.80;99.90
22544;DHT22;11438;52.044;8.716;2023-03-26T03:56:42;11.80;99.90
22544;DHT22;11438;52.044;8.716;2023-03-26T03:59:10;11.80;99.90
22544;DHT22;11438;52.044;8.716;2023-03-26T04:01:36;11.80;99.90
22544;DHT22;11438;52.044;8.716;2023-03-26T04:04:01;11.80;99.90
22544;DHT22;11438;52.044;8.716;2023-03-26T04:06:27;11.70;99.90
22544;DHT22;11438;52.044;8.716;2023-03-26T04:08:57;11.70;99.90
22544;DHT22;11438;52.044;8.716;2023-03-26T04:11:23;11.70;99.90
22544;DHT22;11438;52.044;8.716;2023-03-26T04:13:48;11.70;99.90
22544;DHT22;11438;52.044;8.716;2023-03-26T04:16:14;11.70;99.90
22544;DHT22;11438;52.044;8.716;2023-03-26T04:18:39;11.70;99.90
22544;DHT22;11438;52.044;8.716;2023-03-26T04:21:05;11.70;99.90
22544;DHT22;11438;52.044;8.716;2023-03-26T04:23:32;11.70;99.90
22544;DHT22;11438;52.044;8.716;2023-03-26T04:26:02;11.70;99.90
22544;DHT22;11438;52.044;8.716;2023-03-26T04:28:48;11.70;99.90
22544;DHT22;11438;52.044;8.716;2023-03-26T04:31:19;11.70;99.90
22544;DHT22;11438;52.044;8.716;2023-03-26T04:33:49;11.70;99.90
22544;DHT22;11438;52.044;8.716;2023-03-26T04:36:23;11.70;99.90
22544;DHT22;11438;52.044;8.716;2023-03-26T04:38:51;11.70;99.90
22544;DHT22;11438;52.044;8.716;2023-03-26T04:41:17;11.70;99.90
22544;DHT22;11438;52.044;8.716;2023-03-26T04:43:43;11.80;99.90
22544;DHT22;11438;52.044;8.716;2023-03-26T04:46:15;11.80;99.90
22544;DHT22;11438;52.044;8.716;2023-03-26T04:48:43;11.80;99.90
22544;DHT22;11438;52.044;8.716;2023-03-26T04:51:11;11.80;99.90
22544;DHT22;11438;52.044;8.716;2023-03-26T04:53:51;11.80;99.90
22544;DHT22;11438;52.044;8.716;2023-03-26T04:56:27;11.80;99.90
22544;DHT22;11438;52.044;8.716;2023-03-26T04:58:58;11.80;99.90
22544;DHT22;11438;52.044;8.716;2023-03-26T05:01:25;11.90;99.90
22544;DHT22;11438;52.044;8.716;2023-03-26T05:03:53;11.90;99.90
22544;DHT22;11438;52.044;8.716;2023-03-26T05:06:19;11.80;99.90
22544;DHT22;11438;52.044;8.716;2023-03-26T05:08:45;11.90;99.90
22544;DHT22;11438;52.044;8.716;2023-03-26T05:11:10;11.90;99.90
22544;DHT22;11438;52.044;8.716;2023-03-26T05:13:36;11.90;99.90
22544;DHT22;11438;52.044;8.716;2023-03-26T05:16:02;11.90;99.90
22544;DHT22;11438;52.044;8.716;2023-03-26T05:18:27;11.90;99.90
22544;DHT22;11438;52.044;8.716;2023-03-26T05:20:53;11.90;99.90
22544;DHT22;11438;52.044;8.716;2023-03-26T05:23:20;11.90;99.90
22544;DHT22;11438;52.044;8.716;2023-03-26T05:25:45;11.90;99.90
22544;DHT22;11438;52.044;8.716;2023-03-26T05:28:11;11.90;99.90
22544;DHT22;11438;52.044;8.716;2023-03-26T05:30:37;11.90;99.90
22544;DHT22;11438;52.044;8.716;2023-03-26T05:33:02;11.90;99.90
22544;DHT22;11438;52.044;8.716;2023-03-26T05:35:28;11.90;99.90
22544;DHT22;11438;52.044;8.716;2023-03-26T05:37:54;11.90;99.90
22544;DHT22;11438;52.044;8.716;2023-03-26T05:40:20;11.90;99.90
22544;DHT22;11438;52.044;8.716;2023-03-26T05:42:46;12.00;99.90
22544;DHT22;11438;52.044;8.716;2023-03-26T05:45:13;11.90;99.90
22544;DHT22;11438;52.044;8.716;2023-03-26T05:47:39;11.90;99.90
22544;DHT22;11438;52.044;8.716;2023-03-26T05:50:05;12.00;99.90
22544;DHT22;11438;52.044;8.716;2023-03-26T05:52:32;12.00;99.90
22544;DHT22;11438;52.044;8.716;2023-03-26T05:54:57;12.00;99.90
22544;DHT22;11438;52.044;8.716;2023-03-26T05:57:23;12.00;99.90
22544;DHT22;11438;52.044;8.716;2023-03-26T05:59:53;12.00;99.90
22544;DHT22;11438;52.044;8.716;2023-03-26T06:02:19;12.00;99.90
22544;DHT22;11438;52.044;8.716;2023-03-26T06:04:45;12.10;99.90
22544;DHT22;11438;52.044;8.716;2023-03-26T06:07:10;12.10;99.90
22544;DHT22;11438;52.044;8.716;2023-03-26T06:09:37;12.10;99.90
22544;DHT22;11438;52.044;8.716;2023-03-26T06:12:07;12.10;99.90
22544;DHT22;11438;52.044;8.716;2023-03-26T06:14:33;12.10;99.90
22544;DHT22;11438;52.044;8.716;2023-03-26T06:16:59;12.20;99.90
22544;DHT22;11438;52.044;8.716;2023-03-26T06:19:24;12.20;99.90
22544;DHT22;11438;52.044;8.716;2023-03-26T06:21:50;12.20;99.90
22544;DHT22;11438;52.044;8.716;2023-03-26T06:24:15;12.20;99.90
22544;DHT22;11438;52.044;8.716;2023-03-26T06:26:41;12.20;99.90
22544;DHT22;11438;52.044;8.716;2023-03-26T06:29:07;12.20;99.90
22544;DHT22;11438;52.044;8.716;2023-03-26T06:31:33;12.20;99.90
22544;DHT22;11438;52.044;8.716;2023-03-26T06:33:58;12.20;99.90
22544;DHT22;11438;52.044;8.716;2023-03-26T06:36:24;12.30;99.90
22544;DHT22;11438;52.044;8.716;2023-03-26T06:38:50;12.30;99.90
22544;DHT22;11438;52.044;8.716;2023-03-26T06:41:15;12.30;99.90
22544;DHT22;11438;52.044;8.716;2023-03-26T06:43:41;12.40;99.90
22544;DHT22;11438;52.044;8.716;2023-03-26T06:46:09;12.40;99.90
22544;DHT22;11438;52.044;8.716;2023-03-26T06:48:35;12.40;99.90
22544;DHT22;11438;52.044;8.716;2023-03-26T06:51:00;12.40;99.90
22544;DHT22;11438;52.044;8.716;2023-03-26T06:53:26;12.40;99.90
22544;DHT22;11438;52.044;8.716;2023-03-26T06:55:52;12.50;99.90
22544;DHT22;11438;52.044;8.716;2023-03-26T06:58:18;12.50;99.90
22544;DHT22;11438;52.044;8.716;2023-03-26T07:00:44;12.50;99.90
22544;DHT22;11438;52.044;8.716;2023-03-26T07:03:10;12.60;99.90
22544;DHT22;11438;52.044;8.716;2023-03-26T07:05:36;12.60;99.90
22544;DHT22;11438;52.044;8.716;2023-03-26T07:08:02;12.70;99.90
22544;DHT22;11438;52.044;8.716;2023-03-26T07:10:28;12.70;99.90
22544;DHT22;11438;52.044;8.716;2023-03-26T07:12:53;12.70;99.90
22544;DHT22;11438;52.044;8.716;2023-03-26T07:15:19;12.70;99.90
22544;DHT22;11438;52.044;8.716;2023-03-26T07:17:44;12.80;99.90
22544;DHT22;11438;52.044;8.716;2023-03-26T07:20:10;12.80;99.90
22544;DHT22;11438;52.044;8.716;2023-03-26T07:22:36;12.90;99.90
22544;DHT22;11438;52.044;8.716;2023-03-26T07:25:02;12.90;99.90
22544;DHT22;11438;52.044;8.716;2023-03-26T07:30:43;13.00;99.90
22544;DHT22;11438;52.044;8.716;2023-03-26T07:33:16;13.00;99.50
22544;DHT22;11438;52.044;8.716;2023-03-26T07:36:06;13.00;99.40
22544;DHT22;11438;52.044;8.716;2023-03-26T07:38:49;13.10;99.30
22544;DHT22;11438;52.044;8.716;2023-03-26T07:41:37;13.10;99.40
22544;DHT22;11438;52.044;8.716;2023-03-26T07:46:44;13.00;99.30
22544;DHT22;11438;52.044;8.716;2023-03-26T07:49:12;13.10;99.30
22544;DHT22;11438;52.044;8.716;2023-03-26T07:51:38;13.10;99.30
22544;DHT22;11438;52.044;8.716;2023-03-26T07:54:04;13.10;99.30
22544;DHT22;11438;52.044;8.716;2023-03-26T07:56:59;13.10;99.30
22544;DHT22;11438;52.044;8.716;2023-03-26T07:59:36;13.10;99.30
22544;DHT22;11438;52.044;8.716;2023-03-26T08:04:52;13.20;99.30
22544;DHT22;11438;52.044;8.716;2023-03-26T08:10:19;13.30;99.10
22544;DHT22;11438;52.044;8.716;2023-03-26T08:15:44;13.40;98.80
22544;DHT22;11438;52.044;8.716;2023-03-26T08:18:41;13.40;98.70
22544;DHT22;11438;52.044;8.716;2023-03-26T08:21:18;13.40;98.60
22544;DHT22;11438;52.044;8.716;2023-03-26T08:24:06;13.50;98.50
22544;DHT22;11438;52.044;8.716;2023-03-26T08:26:58;13.50;98.30
22544;DHT22;11438;52.044;8.716;2023-03-26T08:29:41;13.50;98.40
22544;DHT22;11438;52.044;8.716;2023-03-26T08:32:16;13.50;98.40
22544;DHT22;11438;52.044;8.716;2023-03-26T08:34:42;13.50;98.50
22544;DHT22;11438;52.044;8.716;2023-03-26T08:37:08;13.50;98.50
22544;DHT22;11438;52.044;8.716;2023-03-26T08:39:34;13.60;98.40
22544;DHT22;11438;52.044;8.716;2023-03-26T08:45:21;13.60;98.30
22544;DHT22;11438;52.044;8.716;2023-03-26T08:47:59;13.70;98.10
22544;DHT22;11438;52.044;8.716;2023-03-26T09:01:27;13.80;98.30
22544;DHT22;11438;52.044;8.716;2023-03-26T09:12:51;14.10;98.00
22544;DHT22;11438;52.044;8.716;2023-03-26T09:18:20;14.10;97.90
22544;DHT22;11438;52.044;8.716;2023-03-26T09:21:19;14.20;97.70
22544;DHT22;11438;52.044;8.716;2023-03-26T09:35:59;14.40;97.30
22544;DHT22;11438;52.044;8.716;2023-03-26T09:38:44;14.40;97.00
22544;DHT22;11438;52.044;8.716;2023-03-26T09:43:45;14.50;97.10
22544;DHT22;11438;52.044;8.716;2023-03-26T09:46:45;14.60;97.10
22544;DHT22;11438;52.044;8.716;2023-03-26T09:55:18;14.70;97.00
22544;DHT22;11438;52.044;8.716;2023-03-26T10:03:25;14.90;96.60
22544;DHT22;11438;52.044;8.716;2023-03-26T10:11:16;15.00;96.60
22544;DHT22;11438;52.044;8.716;2023-03-26T10:13:57;15.00;96.60
22544;DHT22;11438;52.044;8.716;2023-03-26T10:22:55;15.00;96.10
22544;DHT22;11438;52.044;8.716;2023-03-26T10:25:37;15.00;96.10
22544;DHT22;11438;52.044;8.716;2023-03-26T10:34:11;14.80;95.90
22544;DHT22;11438;52.044;8.716;2023-03-26T10:36:46;14.80;96.00
22544;DHT22;11438;52.044;8.716;2023-03-26T10:50:25;14.40;96.20
22544;DHT22;11438;52.044;8.716;2023-03-26T10:53:11;14.40;96.20
22544;DHT22;11438;52.044;8.716;2023-03-26T10:55:43;14.30;96.40
22544;DHT22;11438;52.044;8.716;2023-03-26T10:58:17;14.30;96.50
22544;DHT22;11438;52.044;8.716;2023-03-26T11:01:02;14.30;96.30
22544;DHT22;11438;52.044;8.716;2023-03-26T11:03:42;14.30;96.40
22544;DHT22;11438;52.044;8.716;2023-03-26T11:11:27;14.20;96.90
22544;DHT22;11438;52.044;8.716;2023-03-26T11:17:12;14.20;96.90
22544;DHT22;11438;52.044;8.716;2023-03-26T11:19:52;14.10;96.90
22544;DHT22;11438;52.044;8.716;2023-03-26T11:22:27;14.10;96.90
22544;DHT22;11438;52.044;8.716;2023-03-26T11:25:25;14.00;97.10
22544;DHT22;11438;52.044;8.716;2023-03-26T11:33:00;14.00;97.50
22544;DHT22;11438;52.044;8.716;2023-03-26T11:35:33;14.00;97.70
22544;DHT22;11438;52.044;8.716;2023-03-26T11:38:04;14.00;97.70
22544;DHT22;11438;52.044;8.716;2023-03-26T11:40:36;14.00;97.90
22544;DHT22;11438;52.044;8.716;2023-03-26T11:43:06;14.00;97.80
22544;DHT22;11438;52.044;8.716;2023-03-26T11:45:35;14.00;97.80
22544;DHT22;11438;52.044;8.716;2023-03-26T11:48:32;14.00;98.00
22544;DHT22;11438;52.044;8.716;2023-03-26T11:51:04;14.10;98.30
22544;DHT22;11438;52.044;8.716;2023-03-26T11:53:34;14.10;98.30
22544;DHT22;11438;52.044;8.716;2023-03-26T11:59:00;14.10;98.40
22544;DHT22;11438;52.044;8.716;2023-03-26T12:01:28;14.10;98.40
22544;DHT22;11438;52.044;8.716;2023-03-26T12:04:18;14.20;98.40
22544;DHT22;11438;52.044;8.716;2023-03-26T12:07:05;14.20;98.30
22544;DHT22;11438;52.044;8.716;2023-03-26T12:09:31;14.20;98.00
22544;DHT22;11438;52.044;8.716;2023-03-26T12:12:02;14.30;97.90
22544;DHT22;11438;52.044;8.716;2023-03-26T12:14:31;14.30;98.00
22544;DHT22;11438;52.044;8.716;2023-03-26T12:16:58;14.40;98.20
22544;DHT22;11438;52.044;8.716;2023-03-26T12:19:24;14.40;98.20
22544;DHT22;11438;52.044;8.716;2023-03-26T12:21:51;14.40;98.20
22544;DHT22;11438;52.044;8.716;2023-03-26T12:24:34;14.40;98.30
22544;DHT22;11438;52.044;8.716;2023-03-26T12:27:19;14.50;98.40
22544;DHT22;11438;52.044;8.716;2023-03-26T12:29:50;14.50;98.00
22544;DHT22;11438;52.044;8.716;2023-03-26T12:32:16;14.50;97.40
22544;DHT22;11438;52.044;8.716;2023-03-26T12:34:42;14.50;97.10
22544;DHT22;11438;52.044;8.716;2023-03-26T12:37:35;14.50;96.90
22544;DHT22;11438;52.044;8.716;2023-03-26T12:40:31;14.40;96.90
22544;DHT22;11438;52.044;8.716;2023-03-26T12:43:00;14.40;96.90
22544;DHT22;11438;52.044;8.716;2023-03-26T12:45:41;14.40;96.90
22544;DHT22;11438;52.044;8.716;2023-03-26T12:48:13;14.30;96.80
22544;DHT22;11438;52.044;8.716;2023-03-26T12:54:02;14.20;96.80
22544;DHT22;11438;52.044;8.716;2023-03-26T12:56:51;14.10;96.80
22544;DHT22;11438;52.044;8.716;2023-03-26T12:59:45;14.10;96.80
22544;DHT22;11438;52.044;8.716;2023-03-26T13:05:48;13.90;97.10
22544;DHT22;11438;52.044;8.716;2023-03-26T13:19:00;13.60;96.80
22544;DHT22;11438;52.044;8.716;2023-03-26T13:24:12;13.50;96.80
22544;DHT22;11438;52.044;8.716;2023-03-26T13:27:18;13.50;96.90
22544;DHT22;11438;52.044;8.716;2023-03-26T13:30:04;13.50;97.10
22544;DHT22;11438;52.044;8.716;2023-03-26T13:38:09;13.40;97.50
22544;DHT22;11438;52.044;8.716;2023-03-26T13:40:41;13.40;97.60
22544;DHT22;11438;52.044;8.716;2023-03-26T13:45:57;13.40;97.70
22544;DHT22;11438;52.044;8.716;2023-03-26T13:48:27;13.40;97.70
22544;DHT22;11438;52.044;8.716;2023-03-26T13:51:06;13.50;97.90
22544;DHT22;11438;52.044;8.716;2023-03-26T13:53:45;13.50;97.80
22544;DHT22;11438;52.044;8.716;2023-03-26T13:56:15;13.50;97.90
22544;DHT22;11438;52.044;8.716;2023-03-26T13:59:30;13.50;97.80
22544;DHT22;11438;52.044;8.716;2023-03-26T14:01:43;13.50;97.70
22544;DHT22;11438;52.044;8.716;2023-03-26T14:04:24;13.60;97.70
22544;DHT22;11438;52.044;8.716;2023-03-26T14:07:13;13.60;97.60
22544;DHT22;11438;52.044;8.716;2023-03-26T14:09:46;13.60;97.50
22544;DHT22;11438;52.044;8.716;2023-03-26T14:12:25;13.70;97.40
22544;DHT22;11438;52.044;8.716;2023-03-26T14:14:54;13.60;97.50
22544;DHT22;11438;52.044;8.716;2023-03-26T14:17:29;13.70;97.50
22544;DHT22;11438;52.044;8.716;2023-03-26T14:36:20;13.70;97.70
22544;DHT22;11438;52.044;8.716;2023-03-26T14:39:18;13.70;97.70
22544;DHT22;11438;52.044;8.716;2023-03-26T14:41:52;13.70;97.60
22544;DHT22;11438;52.044;8.716;2023-03-26T14:44:37;13.70;97.50
22544;DHT22;11438;52.044;8.716;2023-03-26T14:47:21;13.60;97.50
22544;DHT22;11438;52.044;8.716;2023-03-26T14:50:13;13.50;97.70
22544;DHT22;11438;52.044;8.716;2023-03-26T14:52:49;13.40;97.90
22544;DHT22;11438;52.044;8.716;2023-03-26T15:04:56;13.10;97.70
22544;DHT22;11438;52.044;8.716;2023-03-26T15:13:18;12.80;97.80
22544;DHT22;11438;52.044;8.716;2023-03-26T15:25:13;12.60;98.00
22544;DHT22;11438;52.044;8.716;2023-03-26T15:33:45;12.50;98.00
22544;DHT22;11438;52.044;8.716;2023-03-26T15:42:02;12.40;97.30
22544;DHT22;11438;52.044;8.716;2023-03-26T15:47:17;12.20;97.30
22544;DHT22;11438;52.044;8.716;2023-03-26T15:49:56;12.20;97.40
22544;DHT22;11438;52.044;8.716;2023-03-26T15:52:32;12.20;97.50
22544;DHT22;11438;52.044;8.716;2023-03-26T16:00:22;12.00;97.50
22544;DHT22;11438;52.044;8.716;2023-03-26T16:03:14;12.00;97.60
22544;DHT22;11438;52.044;8.716;2023-03-26T16:05:56;11.90;97.60
22544;DHT22;11438;52.044;8.716;2023-03-26T16:14:40;11.90;97.90
22544;DHT22;11438;52.044;8.716;2023-03-26T16:20:18;11.80;98.00
22544;DHT22;11438;52.044;8.716;2023-03-26T16:22:58;11.80;98.00
22544;DHT22;11438;52.044;8.716;2023-03-26T16:25:51;11.80;97.80
22544;DHT22;11438;52.044;8.716;2023-03-26T16:33:48;11.80;97.50
22544;DHT22;11438;52.044;8.716;2023-03-26T16:36:30;11.70;97.10
22544;DHT22;11438;52.044;8.716;2023-03-26T16:44:37;11.70;97.00
22544;DHT22;11438;52.044;8.716;2023-03-26T16:47:35;11.60;97.10
22544;DHT22;11438;52.044;8.716;2023-03-26T16:50:13;11.50;97.10
22544;DHT22;11438;52.044;8.716;2023-03-26T16:55:49;11.50;96.50
22544;DHT22;11438;52.044;8.716;2023-03-26T16:58:34;11.50;96.40
22544;DHT22;11438;52.044;8.716;2023-03-26T17:01:06;11.40;96.10
22544;DHT22;11438;52.044;8.716;2023-03-26T17:06:30;11.40;96.20
22544;DHT22;11438;52.044;8.716;2023-03-26T17:09:06;11.30;96.00
22544;DHT22;11438;52.044;8.716;2023-03-26T17:11:42;11.30;96.00
22544;DHT22;11438;52.044;8.716;2023-03-26T17:14:41;11.30;96.10
22544;DHT22;11438;52.044;8.716;2023-03-26T17:17:48;11.30;95.50
22544;DHT22;11438;52.044;8.716;2023-03-26T17:28:46;11.10;95.10
22544;DHT22;11438;52.044;8.716;2023-03-26T17:31:19;11.10;95.30
22544;DHT22;11438;52.044;8.716;2023-03-26T17:33:48;11.00;95.10
22544;DHT22;11438;52.044;8.716;2023-03-26T17:36:37;11.00;94.90
22544;DHT22;11438;52.044;8.716;2023-03-26T17:44:54;11.00;94.90
22544;DHT22;11438;52.044;8.716;2023-03-26T17:47:39;10.90;94.90
22544;DHT22;11438;52.044;8.716;2023-03-26T17:50:20;10.90;94.70
22544;DHT22;11438;52.044;8.716;2023-03-26T17:52:56;10.90;95.00
22544;DHT22;11438;52.044;8.716;2023-03-26T17:55:26;10.90;95.00
22544;DHT22;11438;52.044;8.716;2023-03-26T17:58:24;10.90;94.40
22544;DHT22;11438;52.044;8.716;2023-03-26T18:00:57;10.80;94.40
22544;DHT22;11438;52.044;8.716;2023-03-26T18:03:54;10.80;94.30
22544;DHT22;11438;52.044;8.716;2023-03-26T18:08:58;10.80;94.10
22544;DHT22;11438;52.044;8.716;2023-03-26T18:16:50;10.60;93.20
22544;DHT22;11438;52.044;8.716;2023-03-26T18:19:18;10.60;93.10
22544;DHT22;11438;52.044;8.716;2023-03-26T18:21:57;10.60;93.40
22544;DHT22;11438;52.044;8.716;2023-03-26T18:24:27;10.50;93.10
22544;DHT22;11438;52.044;8.716;2023-03-26T18:27:10;10.40;93.00
22544;DHT22;11438;52.044;8.716;2023-03-26T18:29:37;10.40;93.40
22544;DHT22;11438;52.044;8.716;2023-03-26T18:34:39;10.30;93.10
22544;DHT22;11438;52.044;8.716;2023-03-26T18:37:17;10.30;93.10
22544;DHT22;11438;52.044;8.716;2023-03-26T18:42:21;10.20;92.90
22544;DHT22;11438;52.044;8.716;2023-03-26T18:44:48;10.20;93.00
22544;DHT22;11438;52.044;8.716;2023-03-26T18:47:18;10.20;92.80
22544;DHT22;11438;52.044;8.716;2023-03-26T18:49:46;10.10;92.60
22544;DHT22;11438;52.044;8.716;2023-03-26T18:52:14;10.10;92.40
22544;DHT22;11438;52.044;8.716;2023-03-26T18:54:41;10.10;92.40
22544;DHT22;11438;52.044;8.716;2023-03-26T18:57:10;10.00;92.30
22544;DHT22;11438;52.044;8.716;2023-03-26T18:59:36;10.00;92.10
22544;DHT22;11438;52.044;8.716;2023-03-26T19:02:10;10.00;92.00
22544;DHT22;11438;52.044;8.716;2023-03-26T19:04:37;9.90;91.90
22544;DHT22;11438;52.044;8.716;2023-03-26T19:07:06;9.80;91.90
22544;DHT22;11438;52.044;8.716;2023-03-26T19:09:34;9.80;92.00
22544;DHT22;11438;52.044;8.716;2023-03-26T19:12:05;9.70;92.00
22544;DHT22;11438;52.044;8.716;2023-03-26T19:14:31;9.70;92.10
22544;DHT22;11438;52.044;8.716;2023-03-26T19:17:03;9.60;92.10
22544;DHT22;11438;52.044;8.716;2023-03-26T19:19:35;9.60;92.20
22544;DHT22;11438;52.044;8.716;2023-03-26T19:22:03;9.50;92.20
22544;DHT22;11438;52.044;8.716;2023-03-26T19:24:29;9.50;92.10
22544;DHT22;11438;52.044;8.716;2023-03-26T19:26:55;9.40;92.20
22544;DHT22;11438;52.044;8.716;2023-03-26T19:29:27;9.40;92.10
22544;DHT22;11438;52.044;8.716;2023-03-26T19:32:17;9.30;91.90
22544;DHT22;11438;52.044;8.716;2023-03-26T19:34:44;9.30;92.10
22544;DHT22;11438;52.044;8.716;2023-03-26T19:37:21;9.20;92.40
22544;DHT22;11438;52.044;8.716;2023-03-26T19:39:53;9.10;92.30
22544;DHT22;11438;52.044;8.716;2023-03-26T19:42:24;9.10;92.10
22544;DHT22;11438;52.044;8.716;2023-03-26T19:44:56;9.00;92.10
22544;DHT22;11438;52.044;8.716;2023-03-26T19:47:24;9.00;92.00
22544;DHT22;11438;52.044;8.716;2023-03-26T19:49:54;8.90;92.00
22544;DHT22;11438;52.044;8.716;2023-03-26T19:52:22;8.80;91.80
22544;DHT22;11438;52.044;8.716;2023-03-26T19:57:21;8.70;91.90
22544;DHT22;11438;52.044;8.716;2023-03-26T19:59:48;8.70;92.00
22544;DHT22;11438;52.044;8.716;2023-03-26T20:02:14;8.60;91.90
22544;DHT22;11438;52.044;8.716;2023-03-26T20:04:40;8.60;91.90
22544;DHT22;11438;52.044;8.716;2023-03-26T20:07:10;8.50;91.90
22544;DHT22;11438;52.044;8.716;2023-03-26T20:09:39;8.50;92.00
22544;DHT22;11438;52.044;8.716;2023-03-26T20:12:05;8.40;92.20
22544;DHT22;11438;52.044;8.716;2023-03-26T20:14:31;8.40;92.20
22544;DHT22;11438;52.044;8.716;2023-03-26T20:16:57;8.30;92.20
22544;DHT22;11438;52.044;8.716;2023-03-26T20:19:23;8.30;92.30
22544;DHT22;11438;52.044;8.716;2023-03-26T20:21:50;8.20;92.40
22544;DHT22;11438;52.044;8.716;2023-03-26T20:24:17;8.20;92.30
22544;DHT22;11438;52.044;8.716;2023-03-26T20:26:44;8.10;92.30
22544;DHT22;11438;52.044;8.716;2023-03-26T20:29:10;8.10;92.40
22544;DHT22;11438;52.044;8.716;2023-03-26T20:31:35;8.00;92.50
22544;DHT22;11438;52.044;8.716;2023-03-26T20:34:02;8.00;92.50